sensor_id;sensor_type;location;lat;lon;timestamp;pressure;altitude;pressure_sealevel;temperature;humidity
5753;BME280;2901;42.140;24.760;2023-01-31T00:00:16;98971.91;;;3.81;76.27
5753;BME280;2901;42.140;24.760;2023-01-31T00:02:41;98980.53;;;3.87;74.53
5753;BME280;2901;42.140;24.760;2023-01-31T00:05:07;98982.31;;;3.94;73.87
5753;BME280;2901;42.140;24.760;2023-01-31T00:07:32;98991.00;;;4.07;72.31
5753;BME280;2901;42.140;24.760;2023-01-31T00:09:58;98989.34;;;4.15;71.43
5753;BME280;2901;42.140;24.760;2023-01-31T00:12:23;98983.50;;;4.24;70.73
5753;BME280;2901;42.140;24.760;2023-01-31T00:14:48;98990.38;;;4.28;70.90
5753;BME280;2901;42.140;24.760;2023-01-31T00:17:14;98994.69;;;4.35;71.03
5753;BME280;2901;42.140;24.760;2023-01-31T00:19:39;98992.13;;;4.35;71.23
5753;BME280;2901;42.140;24.760;2023-01-31T00:22:04;98979.31;;;4.35;71.79
5753;BME280;2901;42.140;24.760;2023-01-31T00:24:30;98979.28;;;4.32;71.76
5753;BME280;2901;42.140;24.760;2023-01-31T00:26:55;98984.41;;;4.32;71.99
5753;BME280;2901;42.140;24.760;2023-01-31T00:29:24;98981.00;;;4.33;71.23
5753;BME280;2901;42.140;24.760;2023-01-31T00:31:50;98983.56;;;4.30;72.31
5753;BME280;2901;42.140;24.760;2023-01-31T00:34:15;98971.53;;;4.24;71.71
5753;BME280;2901;42.140;24.760;2023-01-31T00:36:41;98976.69;;;4.29;71.54
5753;BME280;2901;42.140;24.760;2023-01-31T00:39:07;98989.53;;;4.30;71.64
5753;BME280;2901;42.140;24.760;2023-01-31T00:41:34;98979.28;;;4.30;72.15
5753;BME280;2901;42.140;24.760;2023-01-31T00:44:01;98973.34;;;4.31;71.84
5753;BME280;2901;42.140;24.760;2023-01-31T00:46:27;98969.84;;;4.25;71.89
5753;BME280;2901;42.140;24.760;2023-01-31T00:48:52;98957.06;;;4.28;71.97
5753;BME280;2901;42.140;24.760;2023-01-31T00:51:19;98964.75;;;4.29;72.30
5753;BME280;2901;42.140;24.760;2023-01-31T00:53:44;98965.63;;;4.33;72.49
5753;BME280;2901;42.140;24.760;2023-01-31T00:56:12;98970.75;;;4.33;72.82
5753;BME280;2901;42.140;24.760;2023-01-31T00:58:39;98975.06;;;4.35;72.62
5753;BME280;2901;42.140;24.760;2023-01-31T01:03:31;98980.22;;;4.41;73.15
5753;BME280;2901;42.140;24.760;2023-01-31T01:05:56;98982.91;;;4.50;72.46
5753;BME280;2901;42.140;24.760;2023-01-31T01:08:22;98981.22;;;4.55;72.45
5753;BME280;2901;42.140;24.760;2023-01-31T01:10:47;98987.16;;;4.51;73.02
5753;BME280;2901;42.140;24.760;2023-01-31T01:13:12;98980.38;;;4.53;72.89
5753;BME280;2901;42.140;24.760;2023-01-31T01:15:38;98975.25;;;4.56;72.74
5753;BME280;2901;42.140;24.760;2023-01-31T01:18:03;98986.38;;;4.57;72.77
5753;BME280;2901;42.140;24.760;2023-01-31T01:20:29;98979.53;;;4.56;72.78
5753;BME280;2901;42.140;24.760;2023-01-31T01:22:54;98973.56;;;4.58;73.29
5753;BME280;2901;42.140;24.760;2023-01-31T01:25:20;98971.06;;;4.63;73.62
5753;BME280;2901;42.140;24.760;2023-01-31T01:27:45;98978.75;;;4.63;74.46
5753;BME280;2901;42.140;24.760;2023-01-31T01:30:11;98981.34;;;4.69;74.44
5753;BME280;2901;42.140;24.760;2023-01-31T01:32:36;98978.81;;;4.72;75.08
5753;BME280;2901;42.140;24.760;2023-01-31T01:35:02;98983.13;;;4.76;75.27
5753;BME280;2901;42.140;24.760;2023-01-31T01:37:28;98979.66;;;4.71;76.08
5753;BME280;2901;42.140;24.760;2023-01-31T01:39:54;98975.44;;;4.76;76.22
5753;BME280;2901;42.140;24.760;2023-01-31T01:42:22;98971.97;;;4.72;76.77
5753;BME280;2901;42.140;24.760;2023-01-31T01:52:39;98960.06;;;4.79;78.06
5753;BME280;2901;42.140;24.760;2023-01-31T01:55:13;98958.44;;;4.87;77.80
5753;BME280;2901;42.140;24.760;2023-01-31T01:57:43;98946.44;;;4.83;78.07
5753;BME280;2901;42.140;24.760;2023-01-31T02:00:37;98949.00;;;4.88;77.80
5753;BME280;2901;42.140;24.760;2023-01-31T02:03:05;98937.88;;;4.86;77.92
5753;BME280;2901;42.140;24.760;2023-01-31T02:05:39;98963.56;;;4.89;77.53
5753;BME280;2901;42.140;24.760;2023-01-31T02:08:06;98938.75;;;4.86;78.34
5753;BME280;2901;42.140;24.760;2023-01-31T02:10:43;98937.94;;;4.95;77.61
5753;BME280;2901;42.140;24.760;2023-01-31T02:13:11;98931.16;;;5.03;77.81
5753;BME280;2901;42.140;24.760;2023-01-31T02:15:37;98914.06;;;5.05;77.66
5753;BME280;2901;42.140;24.760;2023-01-31T02:18:02;98925.22;;;5.08;76.86
5753;BME280;2901;42.140;24.760;2023-01-31T02:23:24;98916.72;;;5.18;76.79
5753;BME280;2901;42.140;24.760;2023-01-31T02:34:08;98911.63;;;5.26;75.23
5753;BME280;2901;42.140;24.760;2023-01-31T02:36:59;98917.66;;;5.36;74.40
5753;BME280;2901;42.140;24.760;2023-01-31T02:44:51;98919.44;;;5.46;72.80
5753;BME280;2901;42.140;24.760;2023-01-31T02:47:56;98925.44;;;5.57;72.44
5753;BME280;2901;42.140;24.760;2023-01-31T02:50:29;98911.78;;;5.56;71.03
5753;BME280;2901;42.140;24.760;2023-01-31T02:53:04;98919.47;;;5.61;70.84
5753;BME280;2901;42.140;24.760;2023-01-31T02:55:38;98913.47;;;5.60;70.01
5753;BME280;2901;42.140;24.760;2023-01-31T02:58:26;98922.09;;;5.68;70.00
5753;BME280;2901;42.140;24.760;2023-01-31T03:00:56;98922.06;;;5.70;68.97
5753;BME280;2901;42.140;24.760;2023-01-31T03:03:27;98910.13;;;5.72;69.02
5753;BME280;2901;42.140;24.760;2023-01-31T03:06:11;98917.00;;;5.79;68.77
5753;BME280;2901;42.140;24.760;2023-01-31T03:09:16;98904.97;;;5.80;68.80
5753;BME280;2901;42.140;24.760;2023-01-31T03:20:22;98924.75;;;5.91;68.00
5753;BME280;2901;42.140;24.760;2023-01-31T03:23:12;98917.03;;;5.88;66.49
5753;BME280;2901;42.140;24.760;2023-01-31T03:25:39;98913.59;;;5.86;66.51
5753;BME280;2901;42.140;24.760;2023-01-31T03:28:09;98916.09;;;5.74;67.33
5753;BME280;2901;42.140;24.760;2023-01-31T03:31:04;98916.94;;;5.73;66.64
5753;BME280;2901;42.140;24.760;2023-01-31T03:33:38;98924.66;;;5.65;66.84
5753;BME280;2901;42.140;24.760;2023-01-31T03:41:53;98924.59;;;5.52;67.78
5753;BME280;2901;42.140;24.760;2023-01-31T03:44:23;98920.31;;;5.49;67.93
5753;BME280;2901;42.140;24.760;2023-01-31T03:47:00;98923.69;;;5.44;67.08
5753;BME280;2901;42.140;24.760;2023-01-31T03:49:28;98915.13;;;5.42;66.81
5753;BME280;2901;42.140;24.760;2023-01-31T03:51:59;98922.81;;;5.36;67.09
5753;BME280;2901;42.140;24.760;2023-01-31T03:54:31;98930.50;;;5.39;66.75
5753;BME280;2901;42.140;24.760;2023-01-31T03:57:11;98932.22;;;5.37;65.51
5753;BME280;2901;42.140;24.760;2023-01-31T03:59:38;98949.31;;;5.32;64.91
5753;BME280;2901;42.140;24.760;2023-01-31T04:02:09;98941.59;;;5.29;62.56
5753;BME280;2901;42.140;24.760;2023-01-31T04:04:47;98939.84;;;5.24;62.43
5753;BME280;2901;42.140;24.760;2023-01-31T04:07:15;98951.78;;;5.21;61.48
5753;BME280;2901;42.140;24.760;2023-01-31T04:09:42;98935.53;;;5.19;61.29
5753;BME280;2901;42.140;24.760;2023-01-31T04:12:11;98955.19;;;5.15;61.67
5753;BME280;2901;42.140;24.760;2023-01-31T04:14:36;98953.44;;;5.08;62.11
5753;BME280;2901;42.140;24.760;2023-01-31T04:17:02;98964.53;;;5.07;61.82
5753;BME280;2901;42.140;24.760;2023-01-31T04:19:27;98970.50;;;5.03;62.34
5753;BME280;2901;42.140;24.760;2023-01-31T04:21:52;98993.59;;;5.00;62.76
5753;BME280;2901;42.140;24.760;2023-01-31T04:24:18;98980.69;;;4.94;64.06
5753;BME280;2901;42.140;24.760;2023-01-31T04:26:43;98994.38;;;4.95;64.25
5753;BME280;2901;42.140;24.760;2023-01-31T04:29:08;98967.81;;;4.85;64.58
5753;BME280;2901;42.140;24.760;2023-01-31T04:31:34;98995.13;;;4.77;64.31
5753;BME280;2901;42.140;24.760;2023-01-31T04:33:59;98989.09;;;4.74;65.16
5753;BME280;2901;42.140;24.760;2023-01-31T04:36:25;98969.38;;;4.71;66.33
5753;BME280;2901;42.140;24.760;2023-01-31T04:38:50;98980.50;;;4.68;66.95
5753;BME280;2901;42.140;24.760;2023-01-31T04:41:16;98998.44;;;4.67;67.67
5753;BME280;2901;42.140;24.760;2023-01-31T04:43:41;98994.09;;;4.60;68.30
5753;BME280;2901;42.140;24.760;2023-01-31T04:46:06;98997.44;;;4.53;69.31
5753;BME280;2901;42.140;24.760;2023-01-31T04:48:32;99010.22;;;4.51;69.97
5753;BME280;2901;42.140;24.760;2023-01-31T04:50:58;99003.34;;;4.44;69.78
5753;BME280;2901;42.140;24.760;2023-01-31T04:53:23;99000.75;;;4.43;70.41
5753;BME280;2901;42.140;24.760;2023-01-31T04:55:48;98995.56;;;4.34;70.37
5753;BME280;2901;42.140;24.760;2023-01-31T04:58:14;98999.81;;;4.35;71.78
5753;BME280;2901;42.140;24.760;2023-01-31T05:00:39;99039.16;;;4.37;71.27
5753;BME280;2901;42.140;24.760;2023-01-31T05:03:04;99010.09;;;4.36;71.00
5753;BME280;2901;42.140;24.760;2023-01-31T05:05:31;98989.53;;;4.32;71.42
5753;BME280;2901;42.140;24.760;2023-01-31T05:07:57;98997.22;;;4.32;71.65
5753;BME280;2901;42.140;24.760;2023-01-31T05:10:22;99017.75;;;4.33;71.36
5753;BME280;2901;42.140;24.760;2023-01-31T05:12:47;98997.22;;;4.30;71.61
5753;BME280;2901;42.140;24.760;2023-01-31T05:15:13;98990.38;;;4.29;72.08
5753;BME280;2901;42.140;24.760;2023-01-31T05:17:38;98998.06;;;4.28;72.42
5753;BME280;2901;42.140;24.760;2023-01-31T05:20:04;99002.19;;;4.16;73.17
5753;BME280;2901;42.140;24.760;2023-01-31T05:22:30;99002.97;;;4.09;73.87
5753;BME280;2901;42.140;24.760;2023-01-31T05:24:55;99006.44;;;4.11;73.74
5753;BME280;2901;42.140;24.760;2023-01-31T05:27:21;99005.47;;;4.03;73.56
5753;BME280;2901;42.140;24.760;2023-01-31T05:29:46;98996.97;;;4.07;73.76
5753;BME280;2901;42.140;24.760;2023-01-31T05:32:12;99005.50;;;4.06;72.86
5753;BME280;2901;42.140;24.760;2023-01-31T05:34:38;98996.13;;;4.07;72.90
5753;BME280;2901;42.140;24.760;2023-01-31T05:37:04;99011.56;;;4.11;73.14
5753;BME280;2901;42.140;24.760;2023-01-31T05:39:30;99016.69;;;4.11;73.07
5753;BME280;2901;42.140;24.760;2023-01-31T05:41:56;99015.81;;;4.11;73.38
5753;BME280;2901;42.140;24.760;2023-01-31T05:44:21;99006.41;;;4.10;73.35
5753;BME280;2901;42.140;24.760;2023-01-31T05:46:48;99018.38;;;4.12;73.05
5753;BME280;2901;42.140;24.760;2023-01-31T05:49:14;99030.38;;;4.16;72.69
5753;BME280;2901;42.140;24.760;2023-01-31T05:51:40;99021.84;;;4.14;73.29
5753;BME280;2901;42.140;24.760;2023-01-31T05:54:06;99020.09;;;4.13;73.55
5753;BME280;2901;42.140;24.760;2023-01-31T05:56:31;99026.09;;;4.14;73.67
5753;BME280;2901;42.140;24.760;2023-01-31T05:58:57;99023.50;;;4.12;74.15
5753;BME280;2901;42.140;24.760;2023-01-31T06:01:24;99024.28;;;4.08;74.86
5753;BME280;2901;42.140;24.760;2023-01-31T06:03:50;99049.03;;;4.06;74.86
5753;BME280;2901;42.140;24.760;2023-01-31T06:06:16;99037.91;;;4.03;75.58
5753;BME280;2901;42.140;24.760;2023-01-31T06:08:42;99054.16;;;4.06;76.20
5753;BME280;2901;42.140;24.760;2023-01-31T06:11:08;99054.22;;;4.09;76.01
5753;BME280;2901;42.140;24.760;2023-01-31T06:13:38;99055.03;;;4.07;75.67
5753;BME280;2901;42.140;24.760;2023-01-31T06:16:04;99069.56;;;4.08;76.27
5753;BME280;2901;42.140;24.760;2023-01-31T06:18:30;99061.84;;;4.05;76.54
5753;BME280;2901;42.140;24.760;2023-01-31T06:20:55;99066.13;;;4.06;77.18
5753;BME280;2901;42.140;24.760;2023-01-31T06:23:21;99072.06;;;4.03;76.72
5753;BME280;2901;42.140;24.760;2023-01-31T06:25:50;99056.75;;;4.09;76.67
5753;BME280;2901;42.140;24.760;2023-01-31T06:28:16;99049.91;;;4.07;76.37
5753;BME280;2901;42.140;24.760;2023-01-31T06:30:42;99073.13;;;4.21;75.59
5753;BME280;2901;42.140;24.760;2023-01-31T06:33:07;99075.75;;;4.28;75.14
5753;BME280;2901;42.140;24.760;2023-01-31T06:35:33;99074.09;;;4.32;75.32
5753;BME280;2901;42.140;24.760;2023-01-31T06:37:59;99078.44;;;4.34;74.97
5753;BME280;2901;42.140;24.760;2023-01-31T06:40:24;99082.75;;;4.40;75.20
5753;BME280;2901;42.140;24.760;2023-01-31T06:42:50;99079.38;;;4.45;74.87
5753;BME280;2901;42.140;24.760;2023-01-31T06:45:15;99077.72;;;4.49;75.13
5753;BME280;2901;42.140;24.760;2023-01-31T06:47:43;99069.25;;;4.54;75.48
5753;BME280;2901;42.140;24.760;2023-01-31T06:50:10;99089.06;;;4.70;74.97
5753;BME280;2901;42.140;24.760;2023-01-31T06:52:35;99084.00;;;4.77;74.58
5753;BME280;2901;42.140;24.760;2023-01-31T06:55:01;99090.88;;;4.82;74.70
5753;BME280;2901;42.140;24.760;2023-01-31T06:57:26;99091.81;;;4.89;73.83
5753;BME280;2901;42.140;24.760;2023-01-31T06:59:52;99098.72;;;4.97;74.42
5753;BME280;2901;42.140;24.760;2023-01-31T07:02:17;99103.06;;;5.03;74.36
5753;BME280;2901;42.140;24.760;2023-01-31T07:04:42;99101.44;;;5.12;73.80
5753;BME280;2901;42.140;24.760;2023-01-31T07:07:08;99106.59;;;5.15;73.84
5753;BME280;2901;42.140;24.760;2023-01-31T07:09:33;99104.00;;;5.14;74.05
5753;BME280;2901;42.140;24.760;2023-01-31T07:11:58;99110.03;;;5.20;74.02
5753;BME280;2901;42.140;24.760;2023-01-31T07:14:25;99123.78;;;5.27;73.55
5753;BME280;2901;42.140;24.760;2023-01-31T07:16:51;99115.22;;;5.23;73.98
5753;BME280;2901;42.140;24.760;2023-01-31T07:19:16;99128.97;;;5.32;74.11
5753;BME280;2901;42.140;24.760;2023-01-31T07:21:42;99123.81;;;5.29;73.87
5753;BME280;2901;42.140;24.760;2023-01-31T07:24:08;99111.81;;;5.28;74.20
5753;BME280;2901;42.140;24.760;2023-01-31T07:26:34;99136.69;;;5.32;74.52
5753;BME280;2901;42.140;24.760;2023-01-31T07:28:59;99128.09;;;5.31;74.24
5753;BME280;2901;42.140;24.760;2023-01-31T07:31:24;99139.31;;;5.39;74.10
5753;BME280;2901;42.140;24.760;2023-01-31T07:33:50;99144.44;;;5.41;74.14
5753;BME280;2901;42.140;24.760;2023-01-31T07:36:15;99141.06;;;5.45;74.27
5753;BME280;2901;42.140;24.760;2023-01-31T07:38:44;99135.09;;;5.50;73.99
5753;BME280;2901;42.140;24.760;2023-01-31T07:41:10;99141.13;;;5.54;73.73
5753;BME280;2901;42.140;24.760;2023-01-31T07:43:36;99142.91;;;5.59;72.81
5753;BME280;2901;42.140;24.760;2023-01-31T07:46:04;99151.56;;;5.72;72.58
5753;BME280;2901;42.140;24.760;2023-01-31T07:48:30;99138.72;;;5.75;72.17
5753;BME280;2901;42.140;24.760;2023-01-31T07:50:59;99147.28;;;5.72;71.57
5753;BME280;2901;42.140;24.760;2023-01-31T07:53:27;99144.72;;;5.75;72.34
5753;BME280;2901;42.140;24.760;2023-01-31T07:55:52;99140.50;;;5.82;70.39
5753;BME280;2901;42.140;24.760;2023-01-31T07:58:18;99132.75;;;5.78;71.02
5753;BME280;2901;42.140;24.760;2023-01-31T08:00:43;99139.59;;;5.80;69.64
5753;BME280;2901;42.140;24.760;2023-01-31T08:03:28;99143.06;;;5.82;69.63
5753;BME280;2901;42.140;24.760;2023-01-31T08:08:25;99150.81;;;5.90;68.72
5753;BME280;2901;42.140;24.760;2023-01-31T08:10:51;99140.59;;;5.93;68.65
5753;BME280;2901;42.140;24.760;2023-01-31T08:13:16;99165.44;;;5.95;68.63
5753;BME280;2901;42.140;24.760;2023-01-31T08:15:41;99160.31;;;5.95;68.54
5753;BME280;2901;42.140;24.760;2023-01-31T08:18:07;99161.19;;;6.03;68.85
5753;BME280;2901;42.140;24.760;2023-01-31T08:20:32;99164.63;;;5.99;69.45
5753;BME280;2901;42.140;24.760;2023-01-31T08:22:58;99170.66;;;6.10;68.81
5753;BME280;2901;42.140;24.760;2023-01-31T08:25:25;99160.44;;;6.18;68.65
5753;BME280;2901;42.140;24.760;2023-01-31T08:27:53;99172.41;;;6.11;68.56
5753;BME280;2901;42.140;24.760;2023-01-31T08:30:18;99164.66;;;6.07;68.63
5753;BME280;2901;42.140;24.760;2023-01-31T08:32:44;99175.03;;;6.23;68.58
5753;BME280;2901;42.140;24.760;2023-01-31T08:35:09;99173.34;;;6.25;67.51
5753;BME280;2901;42.140;24.760;2023-01-31T08:37:34;99160.44;;;6.19;68.45
5753;BME280;2901;42.140;24.760;2023-01-31T08:40:00;99163.94;;;6.31;68.52
5753;BME280;2901;42.140;24.760;2023-01-31T08:42:25;99181.16;;;6.45;67.69
5753;BME280;2901;42.140;24.760;2023-01-31T08:44:51;99168.22;;;6.36;68.47
5753;BME280;2901;42.140;24.760;2023-01-31T08:47:16;99169.97;;;6.40;67.66
5753;BME280;2901;42.140;24.760;2023-01-31T08:49:41;99176.00;;;6.44;67.75
5753;BME280;2901;42.140;24.760;2023-01-31T08:52:07;99181.13;;;6.44;67.75
5753;BME280;2901;42.140;24.760;2023-01-31T08:54:32;99177.72;;;6.42;67.77
5753;BME280;2901;42.140;24.760;2023-01-31T08:56:57;99165.72;;;6.50;67.88
5753;BME280;2901;42.140;24.760;2023-01-31T08:59:23;99179.50;;;6.58;68.21
5753;BME280;2901;42.140;24.760;2023-01-31T09:01:48;99186.38;;;6.60;67.93
5753;BME280;2901;42.140;24.760;2023-01-31T09:04:14;99176.94;;;6.64;69.18
5753;BME280;2901;42.140;24.760;2023-01-31T09:06:39;99179.50;;;6.61;68.83
5753;BME280;2901;42.140;24.760;2023-01-31T09:09:05;99173.47;;;6.59;68.36
5753;BME280;2901;42.140;24.760;2023-01-31T09:11:30;99182.91;;;6.54;69.19
5753;BME280;2901;42.140;24.760;2023-01-31T09:13:56;99179.50;;;6.64;68.64
5753;BME280;2901;42.140;24.760;2023-01-31T09:16:22;99174.44;;;6.81;68.04
5753;BME280;2901;42.140;24.760;2023-01-31T09:18:47;99180.50;;;7.01;67.10
5753;BME280;2901;42.140;24.760;2023-01-31T09:21:16;99176.22;;;7.15;67.32
5753;BME280;2901;42.140;24.760;2023-01-31T09:23:42;99179.72;;;7.30;65.85
5753;BME280;2901;42.140;24.760;2023-01-31T09:26:07;99165.97;;;7.50;65.28
5753;BME280;2901;42.140;24.760;2023-01-31T09:28:33;99171.16;;;7.60;64.37
5753;BME280;2901;42.140;24.760;2023-01-31T09:31:07;99167.69;;;7.63;63.31
5753;BME280;2901;42.140;24.760;2023-01-31T09:33:33;99170.25;;;7.48;62.72
5753;BME280;2901;42.140;24.760;2023-01-31T09:36:02;99171.13;;;7.50;63.03
5753;BME280;2901;42.140;24.760;2023-01-31T09:38:28;99144.50;;;7.36;63.54
5753;BME280;2901;42.140;24.760;2023-01-31T09:40:54;99153.09;;;7.30;63.37
5753;BME280;2901;42.140;24.760;2023-01-31T09:43:23;99156.50;;;7.38;64.21
5753;BME280;2901;42.140;24.760;2023-01-31T09:45:54;99167.69;;;7.45;63.67
5753;BME280;2901;42.140;24.760;2023-01-31T09:48:24;99145.38;;;7.44;63.55
5753;BME280;2901;42.140;24.760;2023-01-31T09:50:52;99145.38;;;7.57;63.92
5753;BME280;2901;42.140;24.760;2023-01-31T09:53:22;99144.50;;;7.58;64.67
5753;BME280;2901;42.140;24.760;2023-01-31T09:55:55;99143.63;;;7.76;63.88
5753;BME280;2901;42.140;24.760;2023-01-31T10:03:50;99120.41;;;7.93;60.43
5753;BME280;2901;42.140;24.760;2023-01-31T10:06:19;99153.09;;;7.53;60.14
5753;BME280;2901;42.140;24.760;2023-01-31T10:09:11;99112.72;;;7.49;61.02
5753;BME280;2901;42.140;24.760;2023-01-31T10:12:08;99117.88;;;7.70;59.91
5753;BME280;2901;42.140;24.760;2023-01-31T10:20:05;99098.09;;;7.82;60.34
5753;BME280;2901;42.140;24.760;2023-01-31T10:22:57;99101.53;;;7.80;59.74
5753;BME280;2901;42.140;24.760;2023-01-31T10:25:37;99096.38;;;7.86;60.56
5753;BME280;2901;42.140;24.760;2023-01-31T10:28:11;99109.25;;;7.97;61.57
5753;BME280;2901;42.140;24.760;2023-01-31T10:33:27;99109.22;;;7.98;58.77
5753;BME280;2901;42.140;24.760;2023-01-31T10:36:01;99093.72;;;8.16;58.29
5753;BME280;2901;42.140;24.760;2023-01-31T10:38:35;99091.09;;;8.25;59.18
5753;BME280;2901;42.140;24.760;2023-01-31T10:41:13;99085.09;;;8.31;58.25
5753;BME280;2901;42.140;24.760;2023-01-31T10:43:51;99080.75;;;8.27;59.62
5753;BME280;2901;42.140;24.760;2023-01-31T10:46:21;99107.44;;;8.26;58.94
5753;BME280;2901;42.140;24.760;2023-01-31T10:48:47;99076.53;;;8.08;59.18
5753;BME280;2901;42.140;24.760;2023-01-31T10:54:45;99084.28;;;8.05;59.50
5753;BME280;2901;42.140;24.760;2023-01-31T10:57:13;99084.34;;;7.87;59.39
5753;BME280;2901;42.140;24.760;2023-01-31T10:59:42;99078.28;;;7.94;59.76
5753;BME280;2901;42.140;24.760;2023-01-31T11:02:18;99067.94;;;8.16;59.92
5753;BME280;2901;42.140;24.760;2023-01-31T11:04:44;99067.84;;;8.38;59.24
5753;BME280;2901;42.140;24.760;2023-01-31T11:07:09;99062.63;;;8.53;57.99
5753;BME280;2901;42.140;24.760;2023-01-31T11:09:39;99055.72;;;8.56;57.90
5753;BME280;2901;42.140;24.760;2023-01-31T11:12:06;99068.44;;;8.86;56.43
5753;BME280;2901;42.140;24.760;2023-01-31T11:14:32;99077.16;;;8.72;56.54
5753;BME280;2901;42.140;24.760;2023-01-31T11:17:02;99073.81;;;8.52;57.88
5753;BME280;2901;42.140;24.760;2023-01-31T11:19:39;99064.34;;;8.51;58.73
5753;BME280;2901;42.140;24.760;2023-01-31T11:24:46;99069.22;;;9.02;56.89
5753;BME280;2901;42.140;24.760;2023-01-31T11:27:42;99064.03;;;9.02;57.15
5753;BME280;2901;42.140;24.760;2023-01-31T11:30:20;99068.41;;;8.91;56.95
5753;BME280;2901;42.140;24.760;2023-01-31T11:32:47;99063.44;;;8.58;57.59
5753;BME280;2901;42.140;24.760;2023-01-31T11:37:51;99067.75;;;8.62;58.42
5753;BME280;2901;42.140;24.760;2023-01-31T11:40:25;99072.97;;;8.44;58.85
5753;BME280;2901;42.140;24.760;2023-01-31T11:42:55;99059.31;;;8.29;59.46
5753;BME280;2901;42.140;24.760;2023-01-31T11:45:23;99043.84;;;8.29;59.74
5753;BME280;2901;42.140;24.760;2023-01-31T11:47:53;99041.25;;;8.20;59.93
5753;BME280;2901;42.140;24.760;2023-01-31T11:50:20;99049.06;;;8.02;60.76
5753;BME280;2901;42.140;24.760;2023-01-31T11:52:53;99052.47;;;8.07;62.04
5753;BME280;2901;42.140;24.760;2023-01-31T11:55:19;99048.22;;;7.91;62.90
5753;BME280;2901;42.140;24.760;2023-01-31T11:57:44;99054.28;;;7.86;63.57
5753;BME280;2901;42.140;24.760;2023-01-31T12:00:21;99038.78;;;7.84;64.02
5753;BME280;2901;42.140;24.760;2023-01-31T12:02:57;99050.84;;;7.79;64.29
5753;BME280;2901;42.140;24.760;2023-01-31T12:05:32;99050.84;;;7.79;63.92
5753;BME280;2901;42.140;24.760;2023-01-31T12:07:58;99047.44;;;7.77;64.17
5753;BME280;2901;42.140;24.760;2023-01-31T12:13:19;99073.22;;;7.65;63.13
5753;BME280;2901;42.140;24.760;2023-01-31T12:16:02;99067.22;;;7.58;62.80
5753;BME280;2901;42.140;24.760;2023-01-31T12:21:12;99070.66;;;7.62;63.37
5753;BME280;2901;42.140;24.760;2023-01-31T12:24:25;99077.53;;;7.60;62.80
5753;BME280;2901;42.140;24.760;2023-01-31T12:26:56;99082.69;;;7.60;63.36
5753;BME280;2901;42.140;24.760;2023-01-31T12:32:04;99092.97;;;7.61;64.32
5753;BME280;2901;42.140;24.760;2023-01-31T12:37:54;99095.56;;;7.54;65.21
5753;BME280;2901;42.140;24.760;2023-01-31T12:46:09;99074.94;;;7.60;67.94
5753;BME280;2901;42.140;24.760;2023-01-31T12:48:55;99082.66;;;7.55;67.11
5753;BME280;2901;42.140;24.760;2023-01-31T13:04:44;99092.16;;;7.30;69.61
5753;BME280;2901;42.140;24.760;2023-01-31T13:07:21;99093.00;;;7.17;71.21
5753;BME280;2901;42.140;24.760;2023-01-31T13:09:50;99105.84;;;7.11;73.78
5753;BME280;2901;42.140;24.760;2023-01-31T13:12:20;99107.56;;;7.00;78.66
5753;BME280;2901;42.140;24.760;2023-01-31T13:14:56;99092.97;;;6.81;80.13
5753;BME280;2901;42.140;24.760;2023-01-31T13:17:28;99094.59;;;6.56;81.53
5753;BME280;2901;42.140;24.760;2023-01-31T13:19:57;99097.16;;;6.50;82.82
5753;BME280;2901;42.140;24.760;2023-01-31T13:22:29;99095.47;;;6.54;80.57
5753;BME280;2901;42.140;24.760;2023-01-31T13:25:23;99092.03;;;6.52;80.57
5753;BME280;2901;42.140;24.760;2023-01-31T13:28:00;99088.59;;;6.59;78.14
5753;BME280;2901;42.140;24.760;2023-01-31T13:32:54;99101.53;;;6.83;80.62
5753;BME280;2901;42.140;24.760;2023-01-31T13:35:37;99097.25;;;7.02;79.27
5753;BME280;2901;42.140;24.760;2023-01-31T13:38:09;99105.00;;;7.23;77.43
5753;BME280;2901;42.140;24.760;2023-01-31T13:40:46;99107.59;;;7.40;75.79
5753;BME280;2901;42.140;24.760;2023-01-31T13:43:14;99100.72;;;7.45;75.53
5753;BME280;2901;42.140;24.760;2023-01-31T13:45:49;99102.44;;;7.40;74.72
5753;BME280;2901;42.140;24.760;2023-01-31T13:48:31;99098.16;;;7.37;73.90
5753;BME280;2901;42.140;24.760;2023-01-31T13:51:12;99111.88;;;7.42;73.03
5753;BME280;2901;42.140;24.760;2023-01-31T13:53:48;99113.59;;;7.42;74.59
5753;BME280;2901;42.140;24.760;2023-01-31T13:56:33;99099.00;;;7.41;72.18
5753;BME280;2901;42.140;24.760;2023-01-31T13:59:00;99104.16;;;7.31;72.57
5753;BME280;2901;42.140;24.760;2023-01-31T14:01:29;99112.72;;;7.24;72.85
5753;BME280;2901;42.140;24.760;2023-01-31T14:09:30;99133.31;;;7.03;73.55
5753;BME280;2901;42.140;24.760;2023-01-31T14:12:01;99120.41;;;6.96;73.18
5753;BME280;2901;42.140;24.760;2023-01-31T14:14:50;99094.69;;;6.87;75.57
5753;BME280;2901;42.140;24.760;2023-01-31T14:20:00;99129.00;;;7.02;75.37
5753;BME280;2901;42.140;24.760;2023-01-31T14:22:32;99120.44;;;6.91;75.37
5753;BME280;2901;42.140;24.760;2023-01-31T14:25:11;99127.28;;;6.91;74.95
5753;BME280;2901;42.140;24.760;2023-01-31T14:57:47;99174.25;;;6.38;79.97
5753;BME280;2901;42.140;24.760;2023-01-31T15:00:21;99169.97;;;6.37;80.45
5753;BME280;2901;42.140;24.760;2023-01-31T15:05:50;99175.09;;;6.34;81.48
5753;BME280;2901;42.140;24.760;2023-01-31T15:10:59;99180.19;;;6.22;81.20
5753;BME280;2901;42.140;24.760;2023-01-31T15:13:44;99185.34;;;6.25;81.42
5753;BME280;2901;42.140;24.760;2023-01-31T15:16:15;99192.97;;;6.16;82.01
5753;BME280;2901;42.140;24.760;2023-01-31T15:18:48;99198.13;;;6.17;82.68
5753;BME280;2901;42.140;24.760;2023-01-31T15:21:20;99213.47;;;6.07;82.91
5753;BME280;2901;42.140;24.760;2023-01-31T15:23:47;99204.00;;;6.00;82.38
5753;BME280;2901;42.140;24.760;2023-01-31T15:26:15;99210.03;;;6.03;82.63
5753;BME280;2901;42.140;24.760;2023-01-31T15:28:42;99221.13;;;5.98;82.98
5753;BME280;2901;42.140;24.760;2023-01-31T15:31:22;99228.78;;;5.90;82.99
5753;BME280;2901;42.140;24.760;2023-01-31T15:33:56;99228.81;;;5.92;83.69
5753;BME280;2901;42.140;24.760;2023-01-31T15:36:40;99221.84;;;5.82;84.33
5753;BME280;2901;42.140;24.760;2023-01-31T15:39:31;99233.75;;;5.76;85.10
5753;BME280;2901;42.140;24.760;2023-01-31T15:41:56;99233.69;;;5.66;84.33
5753;BME280;2901;42.140;24.760;2023-01-31T15:44:24;99246.50;;;5.63;85.50
5753;BME280;2901;42.140;24.760;2023-01-31T15:46:53;99250.72;;;5.58;85.12
5753;BME280;2901;42.140;24.760;2023-01-31T15:54:27;99248.91;;;5.43;86.39
5753;BME280;2901;42.140;24.760;2023-01-31T15:56:52;99258.28;;;5.41;86.56
5753;BME280;2901;42.140;24.760;2023-01-31T15:59:18;99260.88;;;5.43;86.90
5753;BME280;2901;42.140;24.760;2023-01-31T16:01:51;99268.59;;;5.46;87.79